Latest Weather Observations for Winton

IDQ60801

Issued at 8:02 am EST Monday 29 August 2016 (issued every 30 minutes, with the page automatically refreshed every 10 minutes)

About weather observations | Map of weather stations | Latest weather observations for QLD | Other Formats
Station Details ID: 037039 Name: WINTON AIRPORT Lat: -22.36 Lon: 143.08 Height: 192.2 m
Data from the previous 72 hours. | See also: Recent months at Winton
Date/Time
EST
Temp
°C
App
Temp
°C
Dew
Point
°C
Rel
Hum
%
Delta-T
°C
Wind Press
QNH
hPa
Press
MSL
hPa
Rain since
9am
mm
Dir  Spd
km/h
Gust
km/h
Spd
kts
Gust
kts
29/08:00am 12.6 8.0 5.8 63 3.2 E 19 24 10 13 1019.8 1019.4 0.0
29/07:30am 11.3 7.5 5.6 68 2.7 E 15 19 8 10 1019.7 1019.3 0.0
29/07:00am 9.3 5.3 5.1 75 1.9 E 15 17 8 9 1019.4 1019.0 0.0
29/06:30am 8.2 4.2 5.0 80 1.4 E 15 15 8 8 1018.9 1018.4 0.0
29/06:00am 8.0 4.7 4.6 79 1.5 E 11 13 6 7 1018.3 1017.8 0.0
29/05:30am 8.3 4.3 4.9 79 1.5 E 15 15 8 8 1017.8 1017.3 0.0
29/05:00am 8.7 5.0 4.5 75 1.9 E 13 13 7 7 1017.6 1017.1 0.0
29/04:30am 9.7 6.0 4.7 71 2.3 E 13 17 7 9 1017.3 1016.8 0.0
29/04:00am 8.9 5.3 4.9 76 1.8 ENE 13 15 7 8 1017.2 1016.7 0.0
29/03:30am 8.7 5.5 4.9 77 1.7 E 11 13 6 7 1017.3 1016.8 0.0
29/03:00am 8.8 5.5 4.8 76 1.8 ESE 11 13 6 7 1017.4 1016.9 0.0
29/02:30am 8.8 5.6 5.2 78 1.6 ESE 11 13 6 7 1017.5 1017.0 0.0
29/02:00am 8.5 5.4 5.4 81 1.4 ESE 11 11 6 6 1017.6 1017.1 0.0
29/01:30am 8.7 5.6 5.4 80 1.5 ESE 11 15 6 8 1017.9 1017.4 0.0
29/01:00am 9.0 5.9 5.7 80 1.5 ESE 11 13 6 7 1018.0 1017.5 0.0
29/12:30am 9.0 5.5 5.6 79 1.6 ESE 13 13 7 7 1017.9 1017.4 0.0
29/12:00am 10.1 7.0 5.5 73 2.1 ESE 11 13 6 7 1018.1 1017.6 0.0
 
Date/Time
EST
Temp
°C
App
Temp
°C
Dew
Point
°C
Rel
Hum
%
Delta-T
°C
Wind Press
QNH
hPa
Press
MSL
hPa
Rain since
9am
mm
Dir  Spd
km/h
Gust
km/h
Spd
kts
Gust
kts
28/11:30pm 10.3 6.9 5.7 73 2.1 ESE 13 13 7 7 1018.3 1017.8 0.0
28/11:00pm 10.3 6.9 5.7 73 2.1 E 13 13 7 7 1018.5 1018.0 0.0
28/10:30pm 10.8 7.3 5.6 70 2.4 E 13 13 7 7 1018.4 1017.9 0.0
28/10:00pm 11.3 7.9 5.8 69 2.6 E 13 15 7 8 1018.5 1018.0 0.0
28/09:30pm 12.0 8.7 6.3 68 2.7 ESE 13 15 7 8 1018.4 1017.9 0.0
28/09:00pm 12.3 9.5 6.8 69 2.7 ESE 11 13 6 7 1018.5 1018.0 0.0
28/08:30pm 13.4 10.7 7.2 66 3.0 ESE 11 13 6 7 1018.6 1018.1 0.0
28/08:00pm 14.0 11.7 7.5 65 3.2 ESE 9 11 5 6 1018.3 1017.8 0.0
28/07:30pm 15.2 12.2 7.5 60 3.9 ESE 13 15 7 8 1018.0 1017.5 0.0
28/07:00pm 17.1 14.1 7.7 54 4.8 ESE 13 13 7 7 1017.8 1017.3 0.0
28/06:30pm 19.7 17.3 7.1 44 6.4 ESE 9 9 5 5 1017.6 1017.1 0.0
28/06:00pm 21.2 18.3 6.3 38 7.6 E 11 13 6 7 1017.2 1016.7 0.0
28/05:30pm 24.1 20.7 4.0 27 10.0 E 11 15 6 8 1017.3 1016.8 0.0
28/05:00pm 25.1 20.9 1.9 22 11.2 ENE 13 19 7 10 1017.2 1016.7 0.0
28/04:30pm 25.4 21.3 2.2 22 11.3 E 13 19 7 10 1017.1 1016.6 0.0
28/04:00pm 25.6 21.2 2.9 23 11.2 ENE 15 20 8 11 1017.0 1016.5 0.0
28/03:30pm 25.4 21.1 3.4 24 10.9 E 15 22 8 12 1017.1 1016.6 0.0
28/03:00pm 25.1 20.8 3.1 24 10.8 E 15 20 8 11 1017.3 1016.8 0.0
28/02:30pm 24.7 20.2 2.2 23 10.9 ENE 15 24 8 13 1017.7 1017.2 0.0
28/02:00pm 24.3 19.9 2.5 24 10.5 NE 15 20 8 11 1018.3 1017.8 0.0
28/01:30pm 24.3 19.3 3.6 26 10.2 ENE 19 26 10 14 1019.0 1018.5 0.0
28/01:00pm 23.7 18.7 4.6 29 9.5 ENE 20 30 11 16 1019.6 1019.2 0.0
28/12:30pm 22.6 17.1 4.2 30 9.1 ENE 22 30 12 16 1019.9 1019.5 0.0
28/12:00pm 22.3 17.1 5.3 33 8.5 ENE 22 32 12 17 1020.4 1020.0 0.0
28/11:30am 21.3 15.4 4.0 32 8.4 ENE 24 33 13 18 1020.8 1020.4 0.0
28/11:00am 20.4 13.8 4.4 35 7.8 ENE 28 37 15 20 1021.1 1020.7 0.0
28/10:30am 19.8 13.8 5.5 39 7.1 ENE 26 35 14 19 1021.6 1021.1 0.0
28/10:00am 18.7 13.3 6.2 44 6.2 ENE 24 33 13 18 1022.0 1021.5 0.0
28/09:30am 17.3 11.6 4.9 44 6.0 ENE 24 33 13 18 1021.9 1021.4 0.0
28/09:00am 16.2 11.4 5.5 49 5.2 ENE 20 28 11 15 1021.9 1021.4 0.0
28/08:30am 14.1 9.4 5.2 55 4.2 E 19 26 10 14 1021.6 1021.1 0.0
28/08:00am 11.0 6.7 5.3 68 2.6 E 17 20 9 11 1021.5 1021.0 0.0
28/07:30am 8.0 4.4 4.8 80 1.4 ESE 13 19 7 10 1021.0 1020.6 0.0
28/07:00am 5.8 2.7 3.8 87 0.9 ESE 9 11 5 6 1021.0 1020.6 0.0
28/06:30am 5.7 3.0 3.5 86 0.9 ESE 7 9 4 5 1020.8 1020.4 0.0
28/06:00am 5.9 3.2 3.7 86 0.9 E 7 9 4 5 1020.7 1020.3 0.0
28/05:30am 6.1 3.4 3.8 85 1.0 E 7 9 4 5 1020.4 1020.0 0.0
28/05:00am 6.0 3.3 3.7 85 1.0 E 7 9 4 5 1020.5 1020.1 0.0
28/04:30am 6.5 3.5 4.0 84 1.1 E 9 11 5 6 1020.4 1020.0 0.0
28/04:00am 7.2 3.9 4.5 83 1.2 ESE 11 15 6 8 1020.3 1019.9 0.0
28/03:30am 7.5 3.9 5.0 84 1.1 ESE 13 15 7 8 1020.4 1020.0 0.0
28/03:00am 8.0 4.5 5.3 83 1.2 ESE 13 17 7 9 1020.6 1020.2 0.0
28/02:30am 8.0 4.9 5.6 85 1.1 ESE 11 15 6 8 1021.1 1020.7 0.0
28/02:00am 7.4 4.3 5.5 88 0.9 ESE 11 13 6 7 1021.6 1021.1 0.0
28/01:30am 8.5 5.4 5.6 82 1.3 SE 11 13 6 7 1021.9 1021.4 0.0
28/01:00am 9.2 5.8 5.9 80 1.5 ESE 13 15 7 8 1022.1 1021.6 0.0
28/12:30am 9.6 6.9 5.8 77 1.8 ESE 9 13 5 7 1022.5 1022.0 0.0
28/12:00am 10.6 7.3 6.2 74 2.1 SE 13 17 7 9 1022.4 1021.9 0.0
 
Date/Time
EST
Temp
°C
App
Temp
°C
Dew
Point
°C
Rel
Hum
%
Delta-T
°C
Wind Press
QNH
hPa
Press
MSL
hPa
Rain since
9am
mm
Dir  Spd
km/h
Gust
km/h
Spd
kts
Gust
kts
27/11:30pm 10.2 7.0 6.7 79 1.7 SE 13 15 7 8 1022.5 1022.0 0.0
27/11:00pm 9.8 6.9 6.7 81 1.5 SE 11 13 6 7 1022.7 1022.2 0.0
27/10:30pm 9.9 7.4 6.6 80 1.6 SE 9 11 5 6 1022.7 1022.2 0.0
27/10:00pm 10.2 7.7 6.4 77 1.8 ESE 9 11 5 6 1022.6 1022.1 0.0
27/09:30pm 11.9 8.6 6.4 69 2.6 SE 13 17 7 9 1022.4 1021.9 0.0
27/09:00pm 12.3 9.1 6.8 69 2.6 SE 13 15 7 8 1022.2 1021.7 0.0
27/08:30pm 12.4 9.6 6.9 69 2.7 SE 11 13 6 7 1022.1 1021.6 0.0
27/08:00pm 13.2 10.8 6.8 65 3.1 SE 9 11 5 6 1022.1 1021.6 0.0
27/07:30pm 13.9 11.0 6.5 61 3.6 SE 11 15 6 8 1021.7 1021.2 0.0
27/07:00pm 14.8 11.9 6.4 57 4.1 SSE 11 15 6 8 1021.1 1020.7 0.0
27/06:30pm 15.5 13.0 6.5 55 4.4 SE 9 13 5 7 1020.9 1020.5 0.0
27/06:00pm 17.5 14.1 5.8 46 5.7 SE 13 17 7 9 1020.7 1020.3 0.0
27/05:30pm 18.9 14.5 4.7 39 6.9 SE 17 20 9 11 1020.5 1020.1 0.0
27/05:00pm 19.4 14.6 4.4 37 7.2 SE 19 24 10 13 1020.3 1019.9 0.0
27/04:30pm 20.1 15.7 5.0 37 7.4 SE 17 24 9 13 1020.3 1019.9 0.0
27/04:00pm 19.9 15.4 4.0 35 7.6 SE 17 24 9 13 1020.3 1019.9 0.0
27/03:30pm 20.1 15.2 4.2 35 7.7 SE 19 28 10 15 1020.4 1020.0 0.0
27/03:00pm 20.2 15.7 4.3 35 7.7 SE 17 24 9 13 1020.6 1020.2 0.0
27/02:30pm 19.9 15.7 3.6 34 7.8 SE 15 26 8 14 1021.1 1020.7 0.0
27/02:00pm 19.9 14.8 4.0 35 7.6 SE 20 30 11 16 1021.5 1021.0 0.0
27/01:30pm 19.9 15.8 4.4 36 7.5 SE 15 26 8 14 1021.9 1021.4 0.0
27/01:00pm 19.4 14.1 3.2 34 7.6 SE 20 28 11 15 1022.4 1021.9 0.0
27/12:30pm 19.4 14.7 3.2 34 7.7 SE 17 28 9 15 1023.1 1022.6 0.0
27/12:00pm 19.5 14.5 3.6 35 7.6 SE 19 26 10 14 1023.3 1022.8 0.0
27/11:30am 18.8 14.1 3.0 35 7.4 ESE 17 28 9 15 1023.6 1023.1 0.0
27/11:00am 18.4 13.3 4.2 39 6.8 ESE 20 26 11 14 1024.0 1023.6 0.0
27/10:30am 17.5 12.9 6.7 49 5.4 ESE 20 28 11 15 1024.2 1023.8 0.0
27/10:00am 16.3 12.0 7.0 54 4.6 ESE 19 24 10 13 1024.4 1024.0 0.0
27/09:30am 15.3 10.8 7.1 58 4.1 ESE 20 24 11 13 1024.5 1024.1 0.0
27/09:00am 13.9 9.3 6.5 61 3.6 ESE 20 28 11 15 1024.4 1024.0 0.0
27/08:30am 12.6 8.2 6.6 67 2.9 SE 19 24 10 13 1024.0 1023.6 0.0
27/08:00am 11.0 7.0 6.6 74 2.1 SE 17 22 9 12 1023.6 1023.1 0.0
27/07:30am 8.7 5.7 6.0 83 1.2 SE 11 13 6 7 1023.2 1022.7 0.0
27/07:00am 7.2 4.4 5.3 88 0.8 ESE 9 11 5 6 1023.0 1022.5 0.0
27/06:30am 7.1 4.0 5.4 89 0.8 ESE 11 13 6 7 1022.6 1022.1 0.0
27/06:00am 7.2 4.0 5.3 88 0.8 ESE 11 13 6 7 1022.3 1021.8 0.0
27/05:30am 6.9 4.2 5.4 90 0.7 ESE 9 13 5 7 1021.8 1021.3 0.0
27/05:00am 6.8 4.0 5.1 89 0.8 E 9 11 5 6 1021.6 1021.1 0.0
27/04:30am 7.4 4.3 5.4 87 0.9 ESE 11 13 6 7 1021.2 1020.8 0.0
27/04:00am 7.5 4.4 5.5 87 0.9 SE 11 13 6 7 1021.2 1020.8 0.0
27/03:30am 7.6 4.8 5.1 84 1.1 ESE 9 9 5 5 1021.3 1020.9 0.0
27/03:00am 8.1 5.9 5.4 83 1.2 E 6 7 3 4 1021.5 1021.0 0.0
27/02:30am 8.8 6.6 5.4 79 1.5 ESE 6 7 3 4 1021.3 1020.9 0.0
27/02:00am 9.2 7.4 5.2 76 1.8 SE 4 7 2 4 1021.5 1021.0 0.0
27/01:30am 10.4 8.1 5.6 72 2.2 SE 7 11 4 6 1021.6 1021.1 0.0
27/01:00am 10.0 7.8 6.0 76 1.9 SE 7 15 4 8 1021.8 1021.3 0.0
27/12:30am 10.7 8.5 6.3 74 2.1 SSE 7 9 4 5 1021.9 1021.4 0.0
27/12:00am 9.6 7.7 6.5 81 1.5 SE 6 9 3 5 1021.8 1021.3 0.0
 
Date/Time
EST
Temp
°C
App
Temp
°C
Dew
Point
°C
Rel
Hum
%
Delta-T
°C
Wind Press
QNH
hPa
Press
MSL
hPa
Rain since
9am
mm
Dir  Spd
km/h
Gust
km/h
Spd
kts
Gust
kts
26/11:30pm 10.1 8.0 6.8 80 1.6 SE 7 9 4 5 1021.9 1021.4 0.0
26/11:00pm 10.4 8.4 6.9 79 1.7 SE 7 9 4 5 1022.1 1021.6 0.0
26/10:30pm 11.0 8.9 6.6 74 2.1 SE 7 9 4 5 1022.1 1021.6 0.0
26/10:00pm 11.2 9.2 6.9 75 2.1 SE 7 11 4 6 1022.2 1021.7 0.0
26/09:30pm 11.2 8.6 6.3 72 2.3 SE 9 13 5 7 1022.0 1021.5 0.0
26/09:00pm 11.8 9.3 6.7 71 2.4 SE 9 11 5 6 1021.9 1021.4 0.0
26/08:30pm 12.3 9.5 6.8 69 2.7 SE 11 11 6 6 1021.5 1021.0 0.0
26/08:00pm 12.0 9.1 6.5 69 2.6 ESE 11 13 6 7 1021.1 1020.7 0.0
26/07:30pm 12.8 9.9 6.4 65 3.1 ESE 11 13 6 7 1021.0 1020.6 0.0
26/07:00pm 13.4 10.4 6.0 61 3.5 ESE 11 13 6 7 1020.8 1020.4 0.0
26/06:30pm 15.1 12.0 5.6 53 4.6 SE 11 13 6 7 1020.5 1020.1 0.0
26/06:00pm 17.2 13.6 5.2 45 5.8 SE 13 17 7 9 1020.1 1019.7 0.0
26/05:30pm 18.4 13.2 3.5 37 7.0 SE 20 24 11 13 1019.8 1019.4 0.0
26/05:00pm 19.1 13.9 3.3 35 7.5 SE 20 26 11 14 1019.3 1018.8 0.0
26/04:30pm 19.0 13.9 2.8 34 7.6 SE 19 26 10 14 1019.2 1018.7 0.0
26/04:00pm 20.2 15.5 3.4 33 8.0 SSE 17 28 9 15 1019.1 1018.6 0.0
26/03:30pm 19.6 14.2 2.5 32 8.0 SE 20 28 11 15 1019.0 1018.5 0.0
26/03:00pm 19.9 14.3 3.6 34 7.8 SE 22 30 12 16 1018.9 1018.4 0.0
26/02:30pm 19.6 14.3 2.9 33 7.9 SE 20 32 11 17 1019.1 1018.6 0.0
26/02:00pm 19.8 14.7 3.9 35 7.6 SE 20 32 11 17 1019.2 1018.7 0.0
26/01:30pm 19.3 14.1 3.5 35 7.5 SSE 20 33 11 18 1019.5 1019.1 0.0
26/01:00pm 19.2 14.2 4.6 38 7.1 SE 20 30 11 16 1019.9 1019.5 0.0
26/12:30pm 19.2 14.3 5.3 40 6.8 SE 20 30 11 16 1020.2 1019.8 0.0
26/12:00pm 18.6 13.2 4.4 39 6.8 SE 22 32 12 17 1020.5 1020.1 0.0
26/11:30am 18.4 13.5 4.2 39 6.8 SSE 19 30 10 16 1020.7 1020.3 0.0
26/11:00am 18.2 13.3 5.1 42 6.4 SE 20 30 11 16 1021.0 1020.6 0.0
26/10:30am 17.4 11.6 4.4 42 6.2 SE 24 32 13 17 1021.2 1020.8 0.0
26/10:00am 17.2 11.4 4.5 43 6.0 SE 24 33 13 18 1021.2 1020.8 0.0
26/09:30am 17.1 12.5 5.7 47 5.6 SSE 19 26 10 14 1021.2 1020.8 0.0
26/09:00am 15.3 11.9 6.1 54 4.5 SSE 13 19 7 10 1021.2 1020.8 0.2
26/08:30am 13.4 10.8 7.8 69 2.8 S 11 13 6 7 1021.1 1020.7 0.2

Other Formats:

Comma delimited format used in spreadsheet applications
http://www.bom.gov.au/fwo/IDQ60801/IDQ60801.94342.axf

JavaScript Object Notation format (JSON) in row-major order
http://www.bom.gov.au/fwo/IDQ60801/IDQ60801.94342.json